sensor_id;sensor_type;location;lat;lon;timestamp;pressure;altitude;pressure_sealevel;temperature;humidity
63901;BME280;50538;53.482;10.294;2022-08-19T00:04:35;100722.22;;;25.18;60.45
63901;BME280;50538;53.482;10.294;2022-08-19T00:14:37;100718.97;;;25.16;60.33
63901;BME280;50538;53.482;10.294;2022-08-19T00:24:38;100720.00;;;25.10;60.86
63901;BME280;50538;53.482;10.294;2022-08-19T00:34:38;100695.47;;;24.99;61.32
63901;BME280;50538;53.482;10.294;2022-08-19T00:44:39;100682.91;;;24.88;61.46
63901;BME280;50538;53.482;10.294;2022-08-19T00:54:40;100677.44;;;24.83;61.80
63901;BME280;50538;53.482;10.294;2022-08-19T01:04:40;100704.03;;;24.81;61.89
63901;BME280;50538;53.482;10.294;2022-08-19T01:14:41;100710.31;;;24.87;62.54
63901;BME280;50538;53.482;10.294;2022-08-19T01:24:41;100692.94;;;24.88;62.50
63901;BME280;50538;53.482;10.294;2022-08-19T01:34:42;100663.31;;;24.81;63.05
63901;BME280;50538;53.482;10.294;2022-08-19T01:44:46;100656.72;;;24.72;63.07
63901;BME280;50538;53.482;10.294;2022-08-19T01:54:47;100651.44;;;24.55;63.84
63901;BME280;50538;53.482;10.294;2022-08-19T02:04:47;100655.66;;;24.41;64.67
63901;BME280;50538;53.482;10.294;2022-08-19T02:14:47;100657.81;;;24.39;64.51
63901;BME280;50538;53.482;10.294;2022-08-19T02:24:48;100648.94;;;24.49;63.95
63901;BME280;50538;53.482;10.294;2022-08-19T02:34:48;100654.31;;;24.44;64.59
63901;BME280;50538;53.482;10.294;2022-08-19T02:44:49;100648.84;;;24.38;65.61
63901;BME280;50538;53.482;10.294;2022-08-19T02:54:50;100640.19;;;24.36;65.08
63901;BME280;50538;53.482;10.294;2022-08-19T03:04:50;100645.03;;;24.34;65.82
63901;BME280;50538;53.482;10.294;2022-08-19T03:14:50;100645.78;;;24.25;66.54
63901;BME280;50538;53.482;10.294;2022-08-19T03:24:52;100634.91;;;24.25;65.83
63901;BME280;50538;53.482;10.294;2022-08-19T03:34:56;100655.34;;;24.32;66.19
63901;BME280;50538;53.482;10.294;2022-08-19T03:44:57;100677.81;;;24.28;65.88
63901;BME280;50538;53.482;10.294;2022-08-19T03:54:58;100695.00;;;24.38;64.64
63901;BME280;50538;53.482;10.294;2022-08-19T04:04:59;100708.31;;;24.40;65.11
63901;BME280;50538;53.482;10.294;2022-08-19T04:14:59;100711.56;;;24.42;65.64
63901;BME280;50538;53.482;10.294;2022-08-19T04:25:00;100718.91;;;24.41;64.18
63901;BME280;50538;53.482;10.294;2022-08-19T04:35:00;100720.03;;;24.46;63.99
63901;BME280;50538;53.482;10.294;2022-08-19T04:45:01;100723.13;;;24.27;66.73
63901;BME280;50538;53.482;10.294;2022-08-19T04:55:03;100728.72;;;24.21;66.44
63901;BME280;50538;53.482;10.294;2022-08-19T05:05:06;100733.16;;;24.27;67.33
63901;BME280;50538;53.482;10.294;2022-08-19T05:15:07;100738.03;;;24.25;65.71
63901;BME280;50538;53.482;10.294;2022-08-19T05:25:12;100752.47;;;24.30;64.60
63901;BME280;50538;53.482;10.294;2022-08-19T05:35:12;100753.59;;;24.34;65.44
63901;BME280;50538;53.482;10.294;2022-08-19T05:45:12;100739.69;;;24.26;66.31
63901;BME280;50538;53.482;10.294;2022-08-19T05:55:13;100743.50;;;24.30;65.83
63901;BME280;50538;53.482;10.294;2022-08-19T06:05:13;100738.84;;;24.25;66.30
63901;BME280;50538;53.482;10.294;2022-08-19T06:15:14;100735.69;;;24.33;65.49
63901;BME280;50538;53.482;10.294;2022-08-19T06:25:15;100735.63;;;24.28;66.14
63901;BME280;50538;53.482;10.294;2022-08-19T06:35:17;100729.69;;;24.31;65.93
63901;BME280;50538;53.482;10.294;2022-08-19T06:45:17;100724.13;;;24.48;66.96
63901;BME280;50538;53.482;10.294;2022-08-19T06:55:18;100725.00;;;24.86;65.30
63901;BME280;50538;53.482;10.294;2022-08-19T07:05:18;100723.34;;;24.85;65.11
63901;BME280;50538;53.482;10.294;2022-08-19T07:15:19;100718.25;;;24.93;65.50
63901;BME280;50538;53.482;10.294;2022-08-19T07:25:21;100727.25;;;24.99;64.62
63901;BME280;50538;53.482;10.294;2022-08-19T07:35:22;100751.31;;;25.17;64.10
63901;BME280;50538;53.482;10.294;2022-08-19T07:45:23;100762.69;;;25.14;64.40
63901;BME280;50538;53.482;10.294;2022-08-19T07:55:25;100785.13;;;25.36;61.17
63901;BME280;50538;53.482;10.294;2022-08-19T08:05:26;100784.16;;;25.53;63.12
63901;BME280;50538;53.482;10.294;2022-08-19T08:15:45;100797.06;;;25.30;63.57
63901;BME280;50538;53.482;10.294;2022-08-19T08:25:45;100800.44;;;25.48;62.97
63901;BME280;50538;53.482;10.294;2022-08-19T08:35:48;100811.00;;;25.44;63.39
63901;BME280;50538;53.482;10.294;2022-08-19T08:45:55;100820.09;;;25.23;63.38
63901;BME280;50538;53.482;10.294;2022-08-19T08:55:58;100817.94;;;25.25;64.37
63901;BME280;50538;53.482;10.294;2022-08-19T09:06:26;100818.81;;;25.30;63.97
63901;BME280;50538;53.482;10.294;2022-08-19T09:16:29;100821.78;;;25.29;63.45
63901;BME280;50538;53.482;10.294;2022-08-19T09:26:31;100823.53;;;25.45;63.67
63901;BME280;50538;53.482;10.294;2022-08-19T09:36:32;100820.03;;;25.55;62.59
63901;BME280;50538;53.482;10.294;2022-08-19T09:46:33;100811.59;;;25.51;63.72
63901;BME280;50538;53.482;10.294;2022-08-19T09:56:34;100811.00;;;25.44;64.03
63901;BME280;50538;53.482;10.294;2022-08-19T10:06:36;100815.66;;;25.49;64.28
63901;BME280;50538;53.482;10.294;2022-08-19T10:16:37;100821.44;;;25.62;63.65
63901;BME280;50538;53.482;10.294;2022-08-19T10:26:40;100822.63;;;25.77;62.35
63901;BME280;50538;53.482;10.294;2022-08-19T10:36:47;100831.34;;;25.79;63.21
63901;BME280;50538;53.482;10.294;2022-08-19T10:46:47;100823.81;;;25.96;62.25
63901;BME280;50538;53.482;10.294;2022-08-19T10:56:48;100821.34;;;25.89;62.49
63901;BME280;50538;53.482;10.294;2022-08-19T11:06:51;100821.69;;;26.03;62.28
63901;BME280;50538;53.482;10.294;2022-08-19T11:16:52;100816.28;;;26.18;61.87
63901;BME280;50538;53.482;10.294;2022-08-19T11:27:03;100811.78;;;26.49;60.81
63901;BME280;50538;53.482;10.294;2022-08-19T11:37:05;100815.63;;;26.63;60.66
63901;BME280;50538;53.482;10.294;2022-08-19T11:47:06;100809.34;;;26.78;59.66
63901;BME280;50538;53.482;10.294;2022-08-19T11:57:07;100809.63;;;26.92;59.53
63901;BME280;50538;53.482;10.294;2022-08-19T12:07:07;100816.47;;;27.10;59.21
63901;BME280;50538;53.482;10.294;2022-08-19T12:17:08;100803.38;;;27.27;59.37
63901;BME280;50538;53.482;10.294;2022-08-19T12:27:09;100801.66;;;27.61;57.65
63901;BME280;50538;53.482;10.294;2022-08-19T12:37:10;100807.31;;;27.85;57.38
63901;BME280;50538;53.482;10.294;2022-08-19T12:47:12;100806.19;;;27.96;56.48
63901;BME280;50538;53.482;10.294;2022-08-19T12:57:13;100801.53;;;27.97;56.50
63901;BME280;50538;53.482;10.294;2022-08-19T13:07:15;100797.00;;;28.37;55.02
63901;BME280;50538;53.482;10.294;2022-08-19T13:17:16;100789.13;;;29.03;52.88
63901;BME280;50538;53.482;10.294;2022-08-19T13:27:16;100783.28;;;29.44;52.92
63901;BME280;50538;53.482;10.294;2022-08-19T13:37:16;100773.09;;;29.49;51.84
63901;BME280;50538;53.482;10.294;2022-08-19T13:47:37;100771.69;;;29.76;51.23
63901;BME280;50538;53.482;10.294;2022-08-19T13:57:44;100762.50;;;29.67;50.96
63901;BME280;50538;53.482;10.294;2022-08-19T14:07:46;100758.13;;;30.08;50.51
63901;BME280;50538;53.482;10.294;2022-08-19T14:17:49;100758.31;;;30.36;49.59
63901;BME280;50538;53.482;10.294;2022-08-19T14:27:50;100753.50;;;30.27;47.55
63901;BME280;50538;53.482;10.294;2022-08-19T14:37:51;100752.66;;;30.08;49.34
63901;BME280;50538;53.482;10.294;2022-08-19T14:47:54;100761.03;;;30.17;48.71
63901;BME280;50538;53.482;10.294;2022-08-19T14:57:54;100758.06;;;29.94;49.23
63901;BME280;50538;53.482;10.294;2022-08-19T15:07:54;100773.94;;;29.92;49.33
63901;BME280;50538;53.482;10.294;2022-08-19T15:17:56;100778.97;;;29.85;50.01
63901;BME280;50538;53.482;10.294;2022-08-19T15:28:02;100783.03;;;29.88;50.35
63901;BME280;50538;53.482;10.294;2022-08-19T15:38:03;100782.69;;;29.71;50.25
63901;BME280;50538;53.482;10.294;2022-08-19T15:48:05;100786.41;;;30.04;48.87
63901;BME280;50538;53.482;10.294;2022-08-19T15:58:08;100788.34;;;30.78;46.98
63901;BME280;50538;53.482;10.294;2022-08-19T16:08:28;100781.34;;;31.18;45.29
63901;BME280;50538;53.482;10.294;2022-08-19T16:18:29;100777.22;;;30.88;46.91
63901;BME280;50538;53.482;10.294;2022-08-19T16:28:29;100767.75;;;32.09;42.92
63901;BME280;50538;53.482;10.294;2022-08-19T16:38:31;100762.63;;;32.52;43.06
63901;BME280;50538;53.482;10.294;2022-08-19T16:48:31;100777.00;;;33.47;41.45
63901;BME280;50538;53.482;10.294;2022-08-19T16:58:32;100777.22;;;34.60;37.87
63901;BME280;50538;53.482;10.294;2022-08-19T17:08:33;100767.34;;;34.50;37.21
63901;BME280;50538;53.482;10.294;2022-08-19T17:18:33;100776.63;;;33.40;39.13
63901;BME280;50538;53.482;10.294;2022-08-19T17:28:33;100763.09;;;34.35;39.00
63901;BME280;50538;53.482;10.294;2022-08-19T17:38:34;100779.34;;;34.71;36.48
63901;BME280;50538;53.482;10.294;2022-08-19T17:48:35;100778.16;;;34.03;38.65
63901;BME280;50538;53.482;10.294;2022-08-19T17:58:39;100765.28;;;32.80;40.32
63901;BME280;50538;53.482;10.294;2022-08-19T18:08:39;100757.41;;;31.65;43.32
63901;BME280;50538;53.482;10.294;2022-08-19T18:18:41;100772.75;;;30.41;45.55
63901;BME280;50538;53.482;10.294;2022-08-19T18:28:41;100761.38;;;29.68;46.94
63901;BME280;50538;53.482;10.294;2022-08-19T18:38:41;100764.00;;;29.30;47.71
63901;BME280;50538;53.482;10.294;2022-08-19T18:49:00;100769.38;;;28.77;49.32
63901;BME280;50538;53.482;10.294;2022-08-19T18:59:04;100769.28;;;28.53;49.56
63901;BME280;50538;53.482;10.294;2022-08-19T19:09:06;100798.13;;;28.30;50.30
63901;BME280;50538;53.482;10.294;2022-08-19T19:19:07;100802.41;;;27.87;50.97
63901;BME280;50538;53.482;10.294;2022-08-19T19:29:07;100802.22;;;27.58;51.45
63901;BME280;50538;53.482;10.294;2022-08-19T19:39:08;100804.69;;;27.34;51.24
63901;BME280;50538;53.482;10.294;2022-08-19T19:49:09;100796.81;;;26.97;52.45
63901;BME280;50538;53.482;10.294;2022-08-19T19:59:10;100809.34;;;26.68;52.89
63901;BME280;50538;53.482;10.294;2022-08-19T20:09:12;100827.81;;;26.35;53.61
63901;BME280;50538;53.482;10.294;2022-08-19T20:19:17;100849.47;;;26.15;53.56
63901;BME280;50538;53.482;10.294;2022-08-19T20:29:19;100865.47;;;25.96;53.66
63901;BME280;50538;53.482;10.294;2022-08-19T20:39:19;100857.75;;;25.78;54.29
63901;BME280;50538;53.482;10.294;2022-08-19T20:49:19;100876.88;;;25.56;53.85
63901;BME280;50538;53.482;10.294;2022-08-19T20:59:21;100857.16;;;25.34;54.90
63901;BME280;50538;53.482;10.294;2022-08-19T21:09:21;100862.13;;;25.10;55.36
63901;BME280;50538;53.482;10.294;2022-08-19T21:19:22;100870.97;;;24.95;55.37
63901;BME280;50538;53.482;10.294;2022-08-19T21:29:22;100867.31;;;24.85;54.87
63901;BME280;50538;53.482;10.294;2022-08-19T21:39:22;100872.28;;;24.66;55.74
63901;BME280;50538;53.482;10.294;2022-08-19T21:49:23;100850.56;;;24.44;56.27
63901;BME280;50538;53.482;10.294;2022-08-19T21:59:23;100855.84;;;24.29;56.75
63901;BME280;50538;53.482;10.294;2022-08-19T22:09:23;100859.41;;;24.13;57.40
63901;BME280;50538;53.482;10.294;2022-08-19T22:19:24;100858.22;;;24.03;57.75
63901;BME280;50538;53.482;10.294;2022-08-19T22:29:24;100861.03;;;23.92;57.92
63901;BME280;50538;53.482;10.294;2022-08-19T22:39:24;100856.69;;;23.91;57.75
63901;BME280;50538;53.482;10.294;2022-08-19T22:49:25;100862.78;;;23.81;57.79
63901;BME280;50538;53.482;10.294;2022-08-19T22:59:25;100852.63;;;23.71;57.52
63901;BME280;50538;53.482;10.294;2022-08-19T23:09:25;100840.41;;;23.69;57.27
63901;BME280;50538;53.482;10.294;2022-08-19T23:19:26;100864.41;;;23.60;56.59
63901;BME280;50538;53.482;10.294;2022-08-19T23:29:26;100842.31;;;23.52;57.26
63901;BME280;50538;53.482;10.294;2022-08-19T23:39:45;100836.38;;;23.38;58.18
63901;BME280;50538;53.482;10.294;2022-08-19T23:49:45;100840.91;;;23.32;58.14
63901;BME280;50538;53.482;10.294;2022-08-19T23:59:47;100829.72;;;23.29;58.65
